sensor_id;sensor_type;location;lat;lon;timestamp;P1;durP1;ratioP1;P2;durP2;ratioP2
36243;SDS011;22284;49.956;19.816;2022-07-17T00:02:51;3.92;;;3.00;;
36243;SDS011;22284;49.956;19.816;2022-07-17T00:05:52;3.40;;;2.60;;
36243;SDS011;22284;49.956;19.816;2022-07-17T00:08:53;3.45;;;2.47;;
36243;SDS011;22284;49.956;19.816;2022-07-17T00:11:54;3.92;;;2.58;;
36243;SDS011;22284;49.956;19.816;2022-07-17T00:14:55;3.15;;;2.58;;
36243;SDS011;22284;49.956;19.816;2022-07-17T00:17:56;2.90;;;2.55;;
36243;SDS011;22284;49.956;19.816;2022-07-17T00:20:57;2.98;;;2.67;;
36243;SDS011;22284;49.956;19.816;2022-07-17T00:23:58;3.65;;;2.60;;
36243;SDS011;22284;49.956;19.816;2022-07-17T00:27:00;2.90;;;2.70;;
36243;SDS011;22284;49.956;19.816;2022-07-17T00:30:01;3.70;;;2.30;;
36243;SDS011;22284;49.956;19.816;2022-07-17T00:33:04;3.70;;;2.52;;
36243;SDS011;22284;49.956;19.816;2022-07-17T00:36:05;3.37;;;2.25;;
36243;SDS011;22284;49.956;19.816;2022-07-17T00:39:06;4.47;;;2.35;;
36243;SDS011;22284;49.956;19.816;2022-07-17T00:42:11;6.05;;;2.90;;
36243;SDS011;22284;49.956;19.816;2022-07-17T00:45:14;5.75;;;2.90;;
36243;SDS011;22284;49.956;19.816;2022-07-17T00:48:15;4.35;;;2.90;;
36243;SDS011;22284;49.956;19.816;2022-07-17T00:51:16;4.10;;;2.80;;
36243;SDS011;22284;49.956;19.816;2022-07-17T00:54:17;3.42;;;2.80;;
36243;SDS011;22284;49.956;19.816;2022-07-17T00:57:20;4.92;;;2.72;;
36243;SDS011;22284;49.956;19.816;2022-07-17T01:00:22;6.65;;;2.67;;
36243;SDS011;22284;49.956;19.816;2022-07-17T01:03:24;5.22;;;2.42;;
36243;SDS011;22284;49.956;19.816;2022-07-17T01:09:28;5.35;;;2.83;;
36243;SDS011;22284;49.956;19.816;2022-07-17T01:12:29;3.58;;;2.98;;
36243;SDS011;22284;49.956;19.816;2022-07-17T01:15:33;3.90;;;2.50;;
36243;SDS011;22284;49.956;19.816;2022-07-17T01:18:40;3.67;;;2.47;;
36243;SDS011;22284;49.956;19.816;2022-07-17T01:21:43;3.67;;;2.67;;
36243;SDS011;22284;49.956;19.816;2022-07-17T01:24:47;5.03;;;3.10;;
36243;SDS011;22284;49.956;19.816;2022-07-17T01:27:48;7.00;;;2.75;;
36243;SDS011;22284;49.956;19.816;2022-07-17T01:30:50;3.65;;;2.60;;
36243;SDS011;22284;49.956;19.816;2022-07-17T01:33:52;4.50;;;2.60;;
36243;SDS011;22284;49.956;19.816;2022-07-17T01:36:53;7.12;;;2.30;;
36243;SDS011;22284;49.956;19.816;2022-07-17T01:39:55;5.55;;;2.67;;
36243;SDS011;22284;49.956;19.816;2022-07-17T01:42:56;4.53;;;2.42;;
36243;SDS011;22284;49.956;19.816;2022-07-17T01:45:57;2.40;;;2.20;;
36243;SDS011;22284;49.956;19.816;2022-07-17T01:48:58;5.90;;;2.10;;
36243;SDS011;22284;49.956;19.816;2022-07-17T01:52:01;6.78;;;2.33;;
36243;SDS011;22284;49.956;19.816;2022-07-17T01:55:08;2.47;;;2.07;;
36243;SDS011;22284;49.956;19.816;2022-07-17T01:58:08;6.47;;;2.67;;
36243;SDS011;22284;49.956;19.816;2022-07-17T02:01:09;3.83;;;2.75;;
36243;SDS011;22284;49.956;19.816;2022-07-17T02:04:10;2.60;;;2.40;;
36243;SDS011;22284;49.956;19.816;2022-07-17T02:07:11;2.75;;;2.50;;
36243;SDS011;22284;49.956;19.816;2022-07-17T02:10:13;5.20;;;2.65;;
36243;SDS011;22284;49.956;19.816;2022-07-17T02:13:16;4.42;;;2.42;;
36243;SDS011;22284;49.956;19.816;2022-07-17T02:16:17;2.35;;;2.15;;
36243;SDS011;22284;49.956;19.816;2022-07-17T02:19:19;3.45;;;2.52;;
36243;SDS011;22284;49.956;19.816;2022-07-17T02:22:20;3.10;;;2.60;;
36243;SDS011;22284;49.956;19.816;2022-07-17T02:25:21;3.75;;;2.52;;
36243;SDS011;22284;49.956;19.816;2022-07-17T02:28:22;3.87;;;2.52;;
36243;SDS011;22284;49.956;19.816;2022-07-17T02:31:23;3.05;;;2.50;;
36243;SDS011;22284;49.956;19.816;2022-07-17T02:34:23;2.85;;;2.55;;
36243;SDS011;22284;49.956;19.816;2022-07-17T02:37:24;3.20;;;2.40;;
36243;SDS011;22284;49.956;19.816;2022-07-17T02:40:25;2.60;;;2.40;;
36243;SDS011;22284;49.956;19.816;2022-07-17T02:43:26;2.30;;;2.10;;
36243;SDS011;22284;49.956;19.816;2022-07-17T02:46:27;3.37;;;2.60;;
36243;SDS011;22284;49.956;19.816;2022-07-17T02:49:28;4.50;;;2.33;;
36243;SDS011;22284;49.956;19.816;2022-07-17T02:52:29;3.27;;;2.47;;
36243;SDS011;22284;49.956;19.816;2022-07-17T02:55:30;3.30;;;2.65;;
36243;SDS011;22284;49.956;19.816;2022-07-17T02:58:31;6.17;;;2.62;;
36243;SDS011;22284;49.956;19.816;2022-07-17T03:01:32;4.47;;;2.58;;
36243;SDS011;22284;49.956;19.816;2022-07-17T03:04:33;3.58;;;2.85;;
36243;SDS011;22284;49.956;19.816;2022-07-17T03:07:34;4.05;;;2.60;;
36243;SDS011;22284;49.956;19.816;2022-07-17T03:10:36;3.37;;;2.40;;
36243;SDS011;22284;49.956;19.816;2022-07-17T03:13:37;3.37;;;2.40;;
36243;SDS011;22284;49.956;19.816;2022-07-17T03:16:37;4.10;;;2.72;;
36243;SDS011;22284;49.956;19.816;2022-07-17T03:19:38;4.83;;;2.25;;
36243;SDS011;22284;49.956;19.816;2022-07-17T03:22:39;3.75;;;2.67;;
36243;SDS011;22284;49.956;19.816;2022-07-17T03:25:40;3.55;;;2.27;;
36243;SDS011;22284;49.956;19.816;2022-07-17T03:28:41;2.58;;;2.20;;
36243;SDS011;22284;49.956;19.816;2022-07-17T03:31:43;5.22;;;2.67;;
36243;SDS011;22284;49.956;19.816;2022-07-17T03:37:46;5.75;;;2.47;;
36243;SDS011;22284;49.956;19.816;2022-07-17T03:40:47;2.70;;;2.15;;
36243;SDS011;22284;49.956;19.816;2022-07-17T03:43:49;5.00;;;2.62;;
36243;SDS011;22284;49.956;19.816;2022-07-17T03:46:49;4.67;;;3.00;;
36243;SDS011;22284;49.956;19.816;2022-07-17T03:49:51;3.55;;;2.75;;
36243;SDS011;22284;49.956;19.816;2022-07-17T03:52:52;4.20;;;2.60;;
36243;SDS011;22284;49.956;19.816;2022-07-17T03:55:52;3.05;;;2.33;;
36243;SDS011;22284;49.956;19.816;2022-07-17T03:58:53;7.30;;;3.10;;
36243;SDS011;22284;49.956;19.816;2022-07-17T04:01:54;5.50;;;2.50;;
36243;SDS011;22284;49.956;19.816;2022-07-17T04:04:56;3.77;;;2.65;;
36243;SDS011;22284;49.956;19.816;2022-07-17T04:07:57;5.17;;;2.83;;
36243;SDS011;22284;49.956;19.816;2022-07-17T04:10:58;3.22;;;2.52;;
36243;SDS011;22284;49.956;19.816;2022-07-17T04:13:59;5.40;;;2.62;;
36243;SDS011;22284;49.956;19.816;2022-07-17T04:17:00;6.42;;;2.85;;
36243;SDS011;22284;49.956;19.816;2022-07-17T04:20:02;4.33;;;2.70;;
36243;SDS011;22284;49.956;19.816;2022-07-17T04:23:04;5.85;;;2.70;;
36243;SDS011;22284;49.956;19.816;2022-07-17T04:26:05;4.78;;;2.75;;
36243;SDS011;22284;49.956;19.816;2022-07-17T04:29:07;4.50;;;2.62;;
36243;SDS011;22284;49.956;19.816;2022-07-17T04:32:08;6.37;;;3.08;;
36243;SDS011;22284;49.956;19.816;2022-07-17T04:35:09;6.97;;;3.10;;
36243;SDS011;22284;49.956;19.816;2022-07-17T04:38:10;6.15;;;2.92;;
36243;SDS011;22284;49.956;19.816;2022-07-17T04:41:11;4.12;;;2.60;;
36243;SDS011;22284;49.956;19.816;2022-07-17T04:44:12;7.65;;;3.08;;
36243;SDS011;22284;49.956;19.816;2022-07-17T04:47:13;5.05;;;2.80;;
36243;SDS011;22284;49.956;19.816;2022-07-17T04:50:14;5.00;;;2.92;;
36243;SDS011;22284;49.956;19.816;2022-07-17T04:53:15;5.65;;;3.27;;
36243;SDS011;22284;49.956;19.816;2022-07-17T04:56:16;4.10;;;2.80;;
36243;SDS011;22284;49.956;19.816;2022-07-17T04:59:17;6.70;;;3.27;;
36243;SDS011;22284;49.956;19.816;2022-07-17T05:02:18;6.53;;;3.12;;
36243;SDS011;22284;49.956;19.816;2022-07-17T05:05:19;9.63;;;3.45;;
36243;SDS011;22284;49.956;19.816;2022-07-17T05:08:21;7.62;;;3.37;;
36243;SDS011;22284;49.956;19.816;2022-07-17T05:11:22;8.50;;;3.87;;
36243;SDS011;22284;49.956;19.816;2022-07-17T05:14:23;9.43;;;3.58;;
36243;SDS011;22284;49.956;19.816;2022-07-17T05:17:24;6.70;;;3.10;;
36243;SDS011;22284;49.956;19.816;2022-07-17T05:20:25;4.60;;;3.30;;
36243;SDS011;22284;49.956;19.816;2022-07-17T05:23:26;10.35;;;3.72;;
36243;SDS011;22284;49.956;19.816;2022-07-17T05:26:27;7.22;;;3.33;;
36243;SDS011;22284;49.956;19.816;2022-07-17T05:29:28;7.25;;;3.58;;
36243;SDS011;22284;49.956;19.816;2022-07-17T05:32:29;6.95;;;3.60;;
36243;SDS011;22284;49.956;19.816;2022-07-17T05:35:30;8.20;;;3.77;;
36243;SDS011;22284;49.956;19.816;2022-07-17T05:38:31;8.28;;;3.40;;
36243;SDS011;22284;49.956;19.816;2022-07-17T05:41:32;6.25;;;3.33;;
36243;SDS011;22284;49.956;19.816;2022-07-17T05:44:33;5.28;;;2.95;;
36243;SDS011;22284;49.956;19.816;2022-07-17T05:47:34;8.70;;;3.65;;
36243;SDS011;22284;49.956;19.816;2022-07-17T05:50:35;7.10;;;2.87;;
36243;SDS011;22284;49.956;19.816;2022-07-17T05:53:36;8.28;;;2.98;;
36243;SDS011;22284;49.956;19.816;2022-07-17T05:56:37;6.80;;;2.90;;
36243;SDS011;22284;49.956;19.816;2022-07-17T05:59:38;5.58;;;2.90;;
36243;SDS011;22284;49.956;19.816;2022-07-17T06:02:39;8.68;;;3.30;;
36243;SDS011;22284;49.956;19.816;2022-07-17T06:05:40;7.55;;;3.25;;
36243;SDS011;22284;49.956;19.816;2022-07-17T06:08:41;5.95;;;2.87;;
36243;SDS011;22284;49.956;19.816;2022-07-17T06:11:42;6.78;;;2.77;;
36243;SDS011;22284;49.956;19.816;2022-07-17T06:14:43;6.92;;;2.65;;
36243;SDS011;22284;49.956;19.816;2022-07-17T06:17:45;6.05;;;2.58;;
36243;SDS011;22284;49.956;19.816;2022-07-17T06:20:46;6.03;;;2.60;;
36243;SDS011;22284;49.956;19.816;2022-07-17T06:23:47;6.92;;;2.70;;
36243;SDS011;22284;49.956;19.816;2022-07-17T06:26:48;7.58;;;3.37;;
36243;SDS011;22284;49.956;19.816;2022-07-17T06:29:49;7.62;;;2.65;;
36243;SDS011;22284;49.956;19.816;2022-07-17T06:32:50;7.40;;;2.50;;
36243;SDS011;22284;49.956;19.816;2022-07-17T06:35:51;5.90;;;2.67;;
36243;SDS011;22284;49.956;19.816;2022-07-17T06:38:52;6.40;;;3.02;;
36243;SDS011;22284;49.956;19.816;2022-07-17T06:41:53;6.70;;;2.70;;
36243;SDS011;22284;49.956;19.816;2022-07-17T06:44:54;7.42;;;2.65;;
36243;SDS011;22284;49.956;19.816;2022-07-17T06:47:55;3.67;;;2.08;;
36243;SDS011;22284;49.956;19.816;2022-07-17T06:50:56;6.15;;;2.77;;
36243;SDS011;22284;49.956;19.816;2022-07-17T06:53:57;15.75;;;2.87;;
36243;SDS011;22284;49.956;19.816;2022-07-17T06:56:58;7.92;;;2.30;;
36243;SDS011;22284;49.956;19.816;2022-07-17T06:59:59;6.47;;;2.55;;
36243;SDS011;22284;49.956;19.816;2022-07-17T07:03:00;4.67;;;2.30;;
36243;SDS011;22284;49.956;19.816;2022-07-17T07:06:01;6.10;;;2.30;;
36243;SDS011;22284;49.956;19.816;2022-07-17T07:09:02;6.42;;;2.22;;
36243;SDS011;22284;49.956;19.816;2022-07-17T07:12:03;5.92;;;2.22;;
36243;SDS011;22284;49.956;19.816;2022-07-17T07:15:05;6.45;;;2.52;;
36243;SDS011;22284;49.956;19.816;2022-07-17T07:18:08;5.42;;;2.20;;
36243;SDS011;22284;49.956;19.816;2022-07-17T07:21:09;6.22;;;2.00;;
36243;SDS011;22284;49.956;19.816;2022-07-17T07:24:10;6.92;;;2.10;;
36243;SDS011;22284;49.956;19.816;2022-07-17T07:27:11;6.15;;;1.98;;
36243;SDS011;22284;49.956;19.816;2022-07-17T07:30:12;6.40;;;2.10;;
36243;SDS011;22284;49.956;19.816;2022-07-17T07:33:13;6.72;;;2.40;;
36243;SDS011;22284;49.956;19.816;2022-07-17T07:36:16;4.03;;;2.02;;
36243;SDS011;22284;49.956;19.816;2022-07-17T07:39:17;4.28;;;1.77;;
36243;SDS011;22284;49.956;19.816;2022-07-17T07:42:19;6.65;;;2.02;;
36243;SDS011;22284;49.956;19.816;2022-07-17T07:45:20;9.30;;;2.37;;
36243;SDS011;22284;49.956;19.816;2022-07-17T07:48:21;9.10;;;1.87;;
36243;SDS011;22284;49.956;19.816;2022-07-17T07:51:22;8.08;;;1.90;;
36243;SDS011;22284;49.956;19.816;2022-07-17T07:54:24;5.28;;;1.62;;
36243;SDS011;22284;49.956;19.816;2022-07-17T07:57:25;4.97;;;1.87;;
36243;SDS011;22284;49.956;19.816;2022-07-17T08:00:26;4.50;;;1.37;;
36243;SDS011;22284;49.956;19.816;2022-07-17T08:03:27;6.03;;;1.75;;
36243;SDS011;22284;49.956;19.816;2022-07-17T08:06:28;6.67;;;1.52;;
36243;SDS011;22284;49.956;19.816;2022-07-17T08:09:29;5.58;;;1.52;;
36243;SDS011;22284;49.956;19.816;2022-07-17T08:12:30;6.50;;;1.75;;
36243;SDS011;22284;49.956;19.816;2022-07-17T08:15:31;7.78;;;1.60;;
36243;SDS011;22284;49.956;19.816;2022-07-17T08:18:32;5.05;;;1.80;;
36243;SDS011;22284;49.956;19.816;2022-07-17T08:21:34;9.40;;;1.90;;
36243;SDS011;22284;49.956;19.816;2022-07-17T08:24:35;7.33;;;1.85;;
36243;SDS011;22284;49.956;19.816;2022-07-17T08:27:41;6.37;;;1.80;;
36243;SDS011;22284;49.956;19.816;2022-07-17T08:30:41;7.17;;;2.15;;
36243;SDS011;22284;49.956;19.816;2022-07-17T08:33:42;6.70;;;2.00;;
36243;SDS011;22284;49.956;19.816;2022-07-17T08:36:43;3.60;;;1.80;;
36243;SDS011;22284;49.956;19.816;2022-07-17T08:39:44;4.60;;;1.70;;
36243;SDS011;22284;49.956;19.816;2022-07-17T08:42:45;3.27;;;1.75;;
36243;SDS011;22284;49.956;19.816;2022-07-17T08:45:47;8.03;;;1.95;;
36243;SDS011;22284;49.956;19.816;2022-07-17T08:48:49;3.98;;;1.80;;
36243;SDS011;22284;49.956;19.816;2022-07-17T08:51:55;7.80;;;1.67;;
36243;SDS011;22284;49.956;19.816;2022-07-17T08:54:57;7.75;;;2.00;;
36243;SDS011;22284;49.956;19.816;2022-07-17T08:57:58;4.92;;;1.62;;
36243;SDS011;22284;49.956;19.816;2022-07-17T09:00:59;6.10;;;1.85;;
36243;SDS011;22284;49.956;19.816;2022-07-17T09:04:02;5.65;;;1.98;;
36243;SDS011;22284;49.956;19.816;2022-07-17T09:07:09;5.87;;;1.90;;
36243;SDS011;22284;49.956;19.816;2022-07-17T09:10:11;6.35;;;1.92;;
36243;SDS011;22284;49.956;19.816;2022-07-17T09:13:17;4.20;;;1.52;;
36243;SDS011;22284;49.956;19.816;2022-07-17T09:16:19;8.63;;;1.60;;
36243;SDS011;22284;49.956;19.816;2022-07-17T09:19:33;8.10;;;1.67;;
36243;SDS011;22284;49.956;19.816;2022-07-17T09:25:44;6.60;;;1.60;;
36243;SDS011;22284;49.956;19.816;2022-07-17T09:28:49;4.45;;;1.62;;
36243;SDS011;22284;49.956;19.816;2022-07-17T09:31:51;5.75;;;1.52;;
36243;SDS011;22284;49.956;19.816;2022-07-17T09:37:55;3.52;;;1.40;;
36243;SDS011;22284;49.956;19.816;2022-07-17T09:41:07;4.90;;;1.45;;
36243;SDS011;22284;49.956;19.816;2022-07-17T09:44:12;4.00;;;1.32;;
36243;SDS011;22284;49.956;19.816;2022-07-17T09:47:13;3.20;;;1.20;;
36243;SDS011;22284;49.956;19.816;2022-07-17T09:50:14;4.55;;;1.77;;
36243;SDS011;22284;49.956;19.816;2022-07-17T09:53:16;4.00;;;1.50;;
36243;SDS011;22284;49.956;19.816;2022-07-17T09:56:19;5.42;;;1.85;;
36243;SDS011;22284;49.956;19.816;2022-07-17T09:59:23;5.40;;;1.22;;
36243;SDS011;22284;49.956;19.816;2022-07-17T10:02:26;3.35;;;1.32;;
36243;SDS011;22284;49.956;19.816;2022-07-17T10:05:27;4.55;;;1.27;;
36243;SDS011;22284;49.956;19.816;2022-07-17T10:08:29;6.27;;;1.53;;
36243;SDS011;22284;49.956;19.816;2022-07-17T10:11:32;3.37;;;1.32;;
36243;SDS011;22284;49.956;19.816;2022-07-17T10:14:39;5.12;;;1.65;;
36243;SDS011;22284;49.956;19.816;2022-07-17T10:17:41;3.33;;;1.50;;
36243;SDS011;22284;49.956;19.816;2022-07-17T10:20:42;4.42;;;1.80;;
36243;SDS011;22284;49.956;19.816;2022-07-17T10:23:47;4.00;;;1.20;;
36243;SDS011;22284;49.956;19.816;2022-07-17T10:26:53;3.12;;;1.17;;
36243;SDS011;22284;49.956;19.816;2022-07-17T10:30:02;4.30;;;1.27;;
36243;SDS011;22284;49.956;19.816;2022-07-17T10:33:09;2.27;;;1.10;;
36243;SDS011;22284;49.956;19.816;2022-07-17T10:36:16;2.42;;;1.17;;
36243;SDS011;22284;49.956;19.816;2022-07-17T10:39:18;1.60;;;1.12;;
36243;SDS011;22284;49.956;19.816;2022-07-17T10:42:37;4.20;;;1.42;;
36243;SDS011;22284;49.956;19.816;2022-07-17T10:46:00;3.12;;;1.20;;
36243;SDS011;22284;49.956;19.816;2022-07-17T10:49:02;4.37;;;1.10;;
36243;SDS011;22284;49.956;19.816;2022-07-17T10:55:05;3.47;;;1.22;;
36243;SDS011;22284;49.956;19.816;2022-07-17T10:58:39;3.10;;;1.02;;
36243;SDS011;22284;49.956;19.816;2022-07-17T11:01:37;3.47;;;1.15;;
36243;SDS011;22284;49.956;19.816;2022-07-17T11:04:39;1.57;;;1.10;;
36243;SDS011;22284;49.956;19.816;2022-07-17T11:07:54;2.27;;;1.20;;
36243;SDS011;22284;49.956;19.816;2022-07-17T11:10:59;4.33;;;1.30;;
36243;SDS011;22284;49.956;19.816;2022-07-17T11:14:07;3.72;;;1.05;;
36243;SDS011;22284;49.956;19.816;2022-07-17T11:17:18;4.17;;;0.95;;
36243;SDS011;22284;49.956;19.816;2022-07-17T11:20:19;3.08;;;1.10;;
36243;SDS011;22284;49.956;19.816;2022-07-17T11:23:20;3.27;;;1.15;;
36243;SDS011;22284;49.956;19.816;2022-07-17T11:26:24;3.25;;;1.02;;
36243;SDS011;22284;49.956;19.816;2022-07-17T11:29:25;3.27;;;1.25;;
36243;SDS011;22284;49.956;19.816;2022-07-17T11:32:36;3.08;;;1.10;;
36243;SDS011;22284;49.956;19.816;2022-07-17T11:35:45;4.30;;;1.22;;
36243;SDS011;22284;49.956;19.816;2022-07-17T11:38:46;2.92;;;1.07;;
36243;SDS011;22284;49.956;19.816;2022-07-17T11:41:48;3.10;;;1.12;;
36243;SDS011;22284;49.956;19.816;2022-07-17T11:44:53;2.30;;;1.15;;
36243;SDS011;22284;49.956;19.816;2022-07-17T11:48:00;2.83;;;1.20;;
36243;SDS011;22284;49.956;19.816;2022-07-17T11:51:02;3.05;;;1.37;;
36243;SDS011;22284;49.956;19.816;2022-07-17T11:54:04;3.65;;;0.93;;
36243;SDS011;22284;49.956;19.816;2022-07-17T11:57:08;2.02;;;1.05;;
36243;SDS011;22284;49.956;19.816;2022-07-17T12:00:10;3.98;;;1.17;;
36243;SDS011;22284;49.956;19.816;2022-07-17T12:03:12;1.85;;;1.10;;
36243;SDS011;22284;49.956;19.816;2022-07-17T12:06:13;2.37;;;1.20;;
36243;SDS011;22284;49.956;19.816;2022-07-17T12:09:25;1.60;;;0.98;;
36243;SDS011;22284;49.956;19.816;2022-07-17T12:12:28;5.45;;;1.15;;
36243;SDS011;22284;49.956;19.816;2022-07-17T12:15:35;4.60;;;1.10;;
36243;SDS011;22284;49.956;19.816;2022-07-17T12:18:54;3.35;;;1.17;;
36243;SDS011;22284;49.956;19.816;2022-07-17T12:22:04;3.85;;;1.20;;
36243;SDS011;22284;49.956;19.816;2022-07-17T12:25:05;5.17;;;1.37;;
36243;SDS011;22284;49.956;19.816;2022-07-17T12:28:06;3.58;;;1.10;;
36243;SDS011;22284;49.956;19.816;2022-07-17T12:31:08;4.08;;;1.40;;
36243;SDS011;22284;49.956;19.816;2022-07-17T12:34:11;3.67;;;1.10;;
36243;SDS011;22284;49.956;19.816;2022-07-17T12:40:16;2.55;;;0.90;;
36243;SDS011;22284;49.956;19.816;2022-07-17T12:43:18;3.75;;;1.00;;
36243;SDS011;22284;49.956;19.816;2022-07-17T12:46:18;2.10;;;0.90;;
36243;SDS011;22284;49.956;19.816;2022-07-17T12:49:19;3.98;;;1.00;;
36243;SDS011;22284;49.956;19.816;2022-07-17T12:52:20;2.72;;;1.10;;
36243;SDS011;22284;49.956;19.816;2022-07-17T12:55:21;2.15;;;1.10;;
36243;SDS011;22284;49.956;19.816;2022-07-17T12:58:22;2.47;;;0.95;;
36243;SDS011;22284;49.956;19.816;2022-07-17T13:01:23;4.00;;;1.02;;
36243;SDS011;22284;49.956;19.816;2022-07-17T13:04:24;2.50;;;1.00;;
36243;SDS011;22284;49.956;19.816;2022-07-17T13:07:26;5.33;;;1.20;;
36243;SDS011;22284;49.956;19.816;2022-07-17T13:10:27;4.67;;;1.35;;
36243;SDS011;22284;49.956;19.816;2022-07-17T13:13:28;3.27;;;1.22;;
36243;SDS011;22284;49.956;19.816;2022-07-17T13:16:30;3.20;;;1.23;;
36243;SDS011;22284;49.956;19.816;2022-07-17T13:19:31;4.87;;;1.50;;
36243;SDS011;22284;49.956;19.816;2022-07-17T13:22:32;2.75;;;1.15;;
36243;SDS011;22284;49.956;19.816;2022-07-17T13:25:33;5.17;;;1.17;;
36243;SDS011;22284;49.956;19.816;2022-07-17T13:28:34;4.03;;;1.25;;
36243;SDS011;22284;49.956;19.816;2022-07-17T13:31:35;4.15;;;1.15;;
36243;SDS011;22284;49.956;19.816;2022-07-17T13:34:36;4.10;;;1.12;;
36243;SDS011;22284;49.956;19.816;2022-07-17T13:37:37;1.52;;;1.00;;
36243;SDS011;22284;49.956;19.816;2022-07-17T13:40:38;4.92;;;0.98;;
36243;SDS011;22284;49.956;19.816;2022-07-17T13:43:39;3.60;;;1.20;;
36243;SDS011;22284;49.956;19.816;2022-07-17T13:46:40;2.52;;;1.20;;
36243;SDS011;22284;49.956;19.816;2022-07-17T13:49:41;4.17;;;1.45;;
36243;SDS011;22284;49.956;19.816;2022-07-17T13:52:42;4.00;;;1.10;;
36243;SDS011;22284;49.956;19.816;2022-07-17T13:55:43;1.90;;;1.10;;
36243;SDS011;22284;49.956;19.816;2022-07-17T13:58:44;5.12;;;1.32;;
36243;SDS011;22284;49.956;19.816;2022-07-17T14:01:45;2.47;;;1.05;;
36243;SDS011;22284;49.956;19.816;2022-07-17T14:04:46;3.77;;;1.30;;
36243;SDS011;22284;49.956;19.816;2022-07-17T14:07:47;3.42;;;1.10;;
36243;SDS011;22284;49.956;19.816;2022-07-17T14:10:48;3.20;;;1.02;;
36243;SDS011;22284;49.956;19.816;2022-07-17T14:13:49;7.25;;;1.20;;
36243;SDS011;22284;49.956;19.816;2022-07-17T14:16:52;4.90;;;1.20;;
36243;SDS011;22284;49.956;19.816;2022-07-17T14:19:53;2.80;;;1.00;;
36243;SDS011;22284;49.956;19.816;2022-07-17T14:22:54;4.40;;;1.37;;
36243;SDS011;22284;49.956;19.816;2022-07-17T14:25:55;3.55;;;1.20;;
36243;SDS011;22284;49.956;19.816;2022-07-17T14:28:56;3.25;;;1.30;;
36243;SDS011;22284;49.956;19.816;2022-07-17T14:31:58;3.02;;;1.00;;
36243;SDS011;22284;49.956;19.816;2022-07-17T14:34:59;5.05;;;1.30;;
36243;SDS011;22284;49.956;19.816;2022-07-17T14:38:00;3.20;;;0.90;;
36243;SDS011;22284;49.956;19.816;2022-07-17T14:41:01;2.12;;;0.90;;
36243;SDS011;22284;49.956;19.816;2022-07-17T14:44:02;2.12;;;1.10;;
36243;SDS011;22284;49.956;19.816;2022-07-17T14:47:03;2.22;;;0.72;;
36243;SDS011;22284;49.956;19.816;2022-07-17T14:50:04;5.75;;;1.20;;
36243;SDS011;22284;49.956;19.816;2022-07-17T14:53:06;3.20;;;1.07;;
36243;SDS011;22284;49.956;19.816;2022-07-17T14:56:08;2.12;;;1.00;;
36243;SDS011;22284;49.956;19.816;2022-07-17T14:59:09;3.80;;;1.22;;
36243;SDS011;22284;49.956;19.816;2022-07-17T15:02:10;4.65;;;1.15;;
36243;SDS011;22284;49.956;19.816;2022-07-17T15:05:11;5.20;;;1.07;;
36243;SDS011;22284;49.956;19.816;2022-07-17T15:08:12;3.33;;;1.15;;
36243;SDS011;22284;49.956;19.816;2022-07-17T15:11:12;2.72;;;1.20;;
36243;SDS011;22284;49.956;19.816;2022-07-17T15:14:13;3.52;;;1.50;;
36243;SDS011;22284;49.956;19.816;2022-07-17T15:17:14;3.02;;;1.35;;
36243;SDS011;22284;49.956;19.816;2022-07-17T15:20:15;4.87;;;1.22;;
36243;SDS011;22284;49.956;19.816;2022-07-17T15:23:16;1.52;;;1.00;;
36243;SDS011;22284;49.956;19.816;2022-07-17T15:26:17;3.10;;;1.12;;
36243;SDS011;22284;49.956;19.816;2022-07-17T15:29:18;3.42;;;1.25;;
36243;SDS011;22284;49.956;19.816;2022-07-17T15:32:20;3.05;;;1.07;;
36243;SDS011;22284;49.956;19.816;2022-07-17T15:35:21;3.67;;;1.10;;
36243;SDS011;22284;49.956;19.816;2022-07-17T15:38:24;3.15;;;1.10;;
36243;SDS011;22284;49.956;19.816;2022-07-17T15:41:25;4.60;;;1.30;;
36243;SDS011;22284;49.956;19.816;2022-07-17T15:44:27;2.83;;;1.40;;
36243;SDS011;22284;49.956;19.816;2022-07-17T15:47:28;2.45;;;1.27;;
36243;SDS011;22284;49.956;19.816;2022-07-17T15:50:29;2.30;;;1.27;;
36243;SDS011;22284;49.956;19.816;2022-07-17T15:53:30;4.45;;;1.37;;
36243;SDS011;22284;49.956;19.816;2022-07-17T15:56:31;1.65;;;1.07;;
36243;SDS011;22284;49.956;19.816;2022-07-17T15:59:32;8.43;;;1.50;;
36243;SDS011;22284;49.956;19.816;2022-07-17T16:02:33;3.17;;;1.30;;
36243;SDS011;22284;49.956;19.816;2022-07-17T16:05:34;2.33;;;0.90;;
36243;SDS011;22284;49.956;19.816;2022-07-17T16:08:35;4.35;;;1.45;;
36243;SDS011;22284;49.956;19.816;2022-07-17T16:11:36;5.20;;;1.27;;
36243;SDS011;22284;49.956;19.816;2022-07-17T16:14:37;3.00;;;0.88;;
36243;SDS011;22284;49.956;19.816;2022-07-17T16:17:38;9.15;;;1.32;;
36243;SDS011;22284;49.956;19.816;2022-07-17T16:20:39;3.50;;;1.15;;
36243;SDS011;22284;49.956;19.816;2022-07-17T16:23:40;3.20;;;1.40;;
36243;SDS011;22284;49.956;19.816;2022-07-17T16:26:56;4.80;;;1.20;;
36243;SDS011;22284;49.956;19.816;2022-07-17T16:29:57;6.67;;;1.50;;
36243;SDS011;22284;49.956;19.816;2022-07-17T16:32:58;2.50;;;1.27;;
36243;SDS011;22284;49.956;19.816;2022-07-17T16:35:59;6.83;;;1.30;;
36243;SDS011;22284;49.956;19.816;2022-07-17T16:39:00;1.70;;;1.12;;
36243;SDS011;22284;49.956;19.816;2022-07-17T16:42:01;3.37;;;1.22;;
36243;SDS011;22284;49.956;19.816;2022-07-17T16:45:02;4.35;;;1.02;;
36243;SDS011;22284;49.956;19.816;2022-07-17T16:48:04;2.90;;;1.37;;
36243;SDS011;22284;49.956;19.816;2022-07-17T16:51:06;2.42;;;1.22;;
36243;SDS011;22284;49.956;19.816;2022-07-17T16:54:06;3.62;;;1.22;;
36243;SDS011;22284;49.956;19.816;2022-07-17T16:57:07;4.37;;;1.30;;
36243;SDS011;22284;49.956;19.816;2022-07-17T17:00:08;3.37;;;1.20;;
36243;SDS011;22284;49.956;19.816;2022-07-17T17:03:11;1.45;;;1.12;;
36243;SDS011;22284;49.956;19.816;2022-07-17T17:06:12;2.95;;;1.22;;
36243;SDS011;22284;49.956;19.816;2022-07-17T17:09:14;3.50;;;1.40;;
36243;SDS011;22284;49.956;19.816;2022-07-17T17:12:15;3.70;;;1.40;;
36243;SDS011;22284;49.956;19.816;2022-07-17T17:15:16;4.97;;;1.75;;
36243;SDS011;22284;49.956;19.816;2022-07-17T17:18:17;3.50;;;1.65;;
36243;SDS011;22284;49.956;19.816;2022-07-17T17:21:18;5.65;;;1.60;;
36243;SDS011;22284;49.956;19.816;2022-07-17T17:24:21;3.10;;;1.47;;
36243;SDS011;22284;49.956;19.816;2022-07-17T17:27:22;3.47;;;1.55;;
36243;SDS011;22284;49.956;19.816;2022-07-17T17:30:23;3.05;;;1.07;;
36243;SDS011;22284;49.956;19.816;2022-07-17T17:33:24;2.58;;;1.22;;
36243;SDS011;22284;49.956;19.816;2022-07-17T17:36:25;4.37;;;1.40;;
36243;SDS011;22284;49.956;19.816;2022-07-17T17:39:26;2.60;;;1.30;;
36243;SDS011;22284;49.956;19.816;2022-07-17T17:42:27;4.20;;;1.55;;
36243;SDS011;22284;49.956;19.816;2022-07-17T17:45:28;4.22;;;1.40;;
36243;SDS011;22284;49.956;19.816;2022-07-17T17:48:30;4.85;;;1.62;;
36243;SDS011;22284;49.956;19.816;2022-07-17T17:51:31;2.87;;;1.40;;
36243;SDS011;22284;49.956;19.816;2022-07-17T17:54:32;1.70;;;1.20;;
36243;SDS011;22284;49.956;19.816;2022-07-17T17:57:33;3.00;;;1.77;;
36243;SDS011;22284;49.956;19.816;2022-07-17T18:00:34;4.53;;;1.60;;
36243;SDS011;22284;49.956;19.816;2022-07-17T18:03:36;4.03;;;1.70;;
36243;SDS011;22284;49.956;19.816;2022-07-17T18:06:37;3.92;;;2.15;;
36243;SDS011;22284;49.956;19.816;2022-07-17T18:09:39;7.40;;;3.27;;
36243;SDS011;22284;49.956;19.816;2022-07-17T18:12:40;6.97;;;3.60;;
36243;SDS011;22284;49.956;19.816;2022-07-17T18:15:41;6.03;;;3.30;;
36243;SDS011;22284;49.956;19.816;2022-07-17T18:18:42;4.87;;;2.55;;